createdAt,value
2023-04-25T00:03:43.556Z,73.65
2023-04-25T00:13:50.970Z,73.91
2023-04-25T00:23:58.778Z,74.16
2023-04-25T00:34:06.493Z,74.20
2023-04-25T00:44:14.676Z,74.32
2023-04-25T00:54:22.322Z,74.69
2023-04-25T01:04:29.150Z,75.25
2023-04-25T01:14:36.701Z,75.42
2023-04-25T01:24:43.975Z,75.67
2023-04-25T01:34:51.961Z,75.77
2023-04-25T01:44:59.654Z,76.03
2023-04-25T01:55:07.787Z,76.50
2023-04-25T02:05:14.773Z,77.33
2023-04-25T02:15:22.078Z,77.29
2023-04-25T02:25:28.732Z,77.09
2023-04-25T02:35:36.290Z,77.22
2023-04-25T02:45:43.734Z,77.09
2023-04-25T02:55:51.279Z,77.02
2023-04-25T03:05:58.610Z,77.02
2023-04-25T03:16:06.603Z,77.10
2023-04-25T03:26:14.048Z,77.17
2023-04-25T03:36:21.199Z,77.37
2023-04-25T03:46:28.328Z,77.29
2023-04-25T03:56:35.907Z,77.22
2023-04-25T04:06:43.375Z,77.32
2023-04-25T04:16:50.804Z,77.63
2023-04-25T04:26:58.194Z,77.47
2023-04-25T04:37:05.355Z,77.58
2023-04-25T04:47:13.756Z,77.74
2023-04-25T04:57:20.935Z,77.84
2023-04-25T05:07:27.996Z,77.93
2023-04-25T05:17:35.298Z,77.74
2023-04-25T05:27:42.708Z,77.47
2023-04-25T05:37:50.255Z,77.55
2023-04-25T05:47:57.686Z,77.36
2023-04-25T05:58:04.397Z,77.29
2023-04-25T06:08:12.058Z,77.13
2023-04-25T06:18:20.954Z,76.84
2023-04-25T06:28:27.944Z,76.48
2023-04-25T06:38:36.657Z,76.32
2023-04-25T06:48:43.836Z,76.04
2023-04-25T06:58:51.722Z,75.51
2023-04-25T07:08:59.170Z,75.11
2023-04-25T07:19:07.011Z,74.62
2023-04-25T07:29:13.233Z,74.55
2023-04-25T07:39:20.475Z,73.96
2023-04-25T07:49:27.688Z,72.97
2023-04-25T07:59:34.847Z,71.99
2023-04-25T08:09:42.126Z,71.64
2023-04-25T08:19:49.541Z,70.68
2023-04-25T08:29:56.690Z,69.88
2023-04-25T08:40:04.159Z,69.53
2023-04-25T08:50:10.600Z,69.04
2023-04-25T09:00:19.259Z,67.94
2023-04-25T09:10:26.390Z,66.63
2023-04-25T09:20:37.637Z,66.61
2023-04-25T09:30:49.999Z,66.66
2023-04-25T09:40:57.202Z,66.36
2023-04-25T09:51:08.681Z,66.34
2023-04-25T10:01:15.990Z,65.51
2023-04-25T10:11:27.161Z,64.87
2023-04-25T10:21:36.152Z,63.47
2023-04-25T10:31:47.247Z,63.06
2023-04-25T10:41:54.878Z,61.84
2023-04-25T10:52:22.009Z,60.37
2023-04-25T11:02:28.744Z,58.88
2023-04-25T11:12:36.431Z,58.55
2023-04-25T11:22:46.166Z,57.56
2023-04-25T11:32:54.084Z,58.17
2023-04-25T11:43:03.784Z,57.57
2023-04-25T11:53:11.914Z,58.08
2023-04-25T12:03:18.662Z,57.66
2023-04-25T12:13:25.818Z,57.94
2023-04-25T12:23:31.988Z,57.83
2023-04-25T12:33:40.722Z,58.06
2023-04-25T12:43:48.354Z,57.71
2023-04-25T12:53:55.413Z,57.95
2023-04-25T13:04:02.474Z,58.20
2023-04-25T13:14:09.113Z,58.52
2023-04-25T13:24:15.554Z,58.22
2023-04-25T13:44:27.931Z,58.09
2023-04-25T13:54:35.195Z,58.02
2023-04-25T14:04:43.013Z,57.94
2023-04-25T14:14:50.415Z,58.01
2023-04-25T14:24:57.392Z,58.09
2023-04-25T14:35:03.198Z,57.72
2023-04-25T14:45:12.167Z,58.27
2023-04-25T14:55:19.479Z,58.44
2023-04-25T15:05:26.660Z,58.81
2023-04-25T15:15:34.053Z,58.66
2023-04-25T15:25:41.111Z,58.14
2023-04-25T15:35:48.758Z,58.06
2023-04-25T15:45:56.058Z,57.77
2023-04-25T15:56:04.792Z,57.53
2023-04-25T16:06:11.102Z,57.60
2023-04-25T16:16:16.466Z,57.62
2023-04-25T17:10:46.645Z,57.09
2023-04-25T17:20:50.664Z,57.28
2023-04-25T17:30:54.340Z,57.09
2023-04-25T17:41:02.120Z,57.24
2023-04-25T17:51:06.437Z,57.54
2023-04-25T18:01:10.911Z,57.91
2023-04-25T18:11:14.808Z,58.36
2023-04-25T18:21:21.959Z,58.78
2023-04-25T18:31:31.651Z,59.26
2023-04-25T18:41:54.256Z,59.68
2023-04-25T18:52:00.550Z,60.24
2023-04-25T19:02:04.788Z,60.76
2023-04-25T19:12:12.737Z,61.64
2023-04-25T19:22:19.929Z,61.99
2023-04-25T19:32:25.753Z,62.41
2023-04-25T19:42:29.776Z,63.69
2023-04-25T19:52:34.841Z,64.46
2023-04-25T20:02:42.882Z,64.67
2023-04-25T20:13:10.685Z,65.41
2023-04-25T20:23:14.721Z,65.87
2023-04-25T20:43:23.250Z,67.22
2023-04-25T20:53:27.309Z,67.41
2023-04-25T21:03:35.165Z,67.49
2023-04-25T21:13:39.442Z,67.75
2023-04-25T21:23:43.352Z,68.02
2023-04-25T21:33:50.709Z,68.00
2023-04-25T21:43:57.573Z,67.66
2023-04-25T21:54:05.115Z,67.56
2023-04-25T22:04:08.820Z,67.14
2023-04-25T22:14:15.922Z,66.80
2023-04-25T22:24:43.596Z,66.50
2023-04-25T22:34:50.764Z,65.86
2023-04-25T22:44:54.630Z,65.84
2023-04-25T22:54:59.194Z,65.74
2023-04-25T23:05:04.635Z,65.52
2023-04-25T23:15:12.268Z,65.30
2023-04-25T23:25:20.006Z,65.02
2023-04-25T23:35:23.926Z,64.73
2023-04-25T23:45:27.738Z,64.50
2023-04-25T23:55:32.610Z,64.24
